sensor_id;sensor_type;location;lat;lon;timestamp;P1;durP1;ratioP1;P2;durP2;ratioP2
7501;SDS011;3792;47.740;7.606;2023-06-22T00:00:13;14.27;;;5.93;;
7501;SDS011;3792;47.740;7.606;2023-06-22T00:02:41;10.67;;;5.27;;
7501;SDS011;3792;47.740;7.606;2023-06-22T00:05:08;11.30;;;5.10;;
7501;SDS011;3792;47.740;7.606;2023-06-22T00:07:36;11.83;;;5.47;;
7501;SDS011;3792;47.740;7.606;2023-06-22T00:10:03;12.27;;;5.60;;
7501;SDS011;3792;47.740;7.606;2023-06-22T00:12:31;9.23;;;5.30;;
7501;SDS011;3792;47.740;7.606;2023-06-22T00:14:58;9.03;;;5.27;;
7501;SDS011;3792;47.740;7.606;2023-06-22T00:17:25;13.27;;;6.17;;
7501;SDS011;3792;47.740;7.606;2023-06-22T00:19:52;10.67;;;5.30;;
7501;SDS011;3792;47.740;7.606;2023-06-22T00:22:20;10.43;;;4.97;;
7501;SDS011;3792;47.740;7.606;2023-06-22T00:24:54;8.63;;;4.80;;
7501;SDS011;3792;47.740;7.606;2023-06-22T00:27:21;9.03;;;5.23;;
7501;SDS011;3792;47.740;7.606;2023-06-22T00:29:48;7.27;;;5.07;;
7501;SDS011;3792;47.740;7.606;2023-06-22T00:32:16;8.53;;;4.80;;
7501;SDS011;3792;47.740;7.606;2023-06-22T00:34:43;12.57;;;4.90;;
7501;SDS011;3792;47.740;7.606;2023-06-22T00:37:10;11.17;;;5.23;;
7501;SDS011;3792;47.740;7.606;2023-06-22T00:39:37;10.00;;;5.00;;
7501;SDS011;3792;47.740;7.606;2023-06-22T00:42:06;11.13;;;4.97;;
7501;SDS011;3792;47.740;7.606;2023-06-22T00:44:33;12.90;;;5.47;;
7501;SDS011;3792;47.740;7.606;2023-06-22T00:47:01;9.13;;;4.97;;
7501;SDS011;3792;47.740;7.606;2023-06-22T00:49:28;12.97;;;5.40;;
7501;SDS011;3792;47.740;7.606;2023-06-22T00:51:56;12.17;;;5.73;;
7501;SDS011;3792;47.740;7.606;2023-06-22T00:54:24;9.67;;;4.87;;
7501;SDS011;3792;47.740;7.606;2023-06-22T00:56:51;9.77;;;4.97;;
7501;SDS011;3792;47.740;7.606;2023-06-22T00:59:22;11.60;;;5.57;;
7501;SDS011;3792;47.740;7.606;2023-06-22T01:01:51;13.03;;;5.57;;
7501;SDS011;3792;47.740;7.606;2023-06-22T01:04:18;12.63;;;5.47;;
7501;SDS011;3792;47.740;7.606;2023-06-22T01:06:45;11.37;;;5.20;;
7501;SDS011;3792;47.740;7.606;2023-06-22T01:09:21;8.17;;;5.27;;
7501;SDS011;3792;47.740;7.606;2023-06-22T01:11:57;16.53;;;5.60;;
7501;SDS011;3792;47.740;7.606;2023-06-22T01:14:28;12.80;;;5.83;;
7501;SDS011;3792;47.740;7.606;2023-06-22T01:17:03;10.23;;;5.90;;
7501;SDS011;3792;47.740;7.606;2023-06-22T01:19:35;11.43;;;6.07;;
7501;SDS011;3792;47.740;7.606;2023-06-22T01:22:07;15.40;;;6.17;;
7501;SDS011;3792;47.740;7.606;2023-06-22T01:24:42;9.97;;;5.53;;
7501;SDS011;3792;47.740;7.606;2023-06-22T01:27:19;12.20;;;5.33;;
7501;SDS011;3792;47.740;7.606;2023-06-22T01:29:56;12.10;;;5.80;;
7501;SDS011;3792;47.740;7.606;2023-06-22T01:32:25;15.37;;;6.30;;
7501;SDS011;3792;47.740;7.606;2023-06-22T01:34:54;13.97;;;6.07;;
7501;SDS011;3792;47.740;7.606;2023-06-22T01:37:22;13.87;;;5.63;;
7501;SDS011;3792;47.740;7.606;2023-06-22T01:39:49;8.43;;;5.30;;
7501;SDS011;3792;47.740;7.606;2023-06-22T01:42:17;15.70;;;6.47;;
7501;SDS011;3792;47.740;7.606;2023-06-22T01:44:44;11.27;;;6.10;;
7501;SDS011;3792;47.740;7.606;2023-06-22T01:47:13;16.10;;;5.90;;
7501;SDS011;3792;47.740;7.606;2023-06-22T01:49:40;9.83;;;5.93;;
7501;SDS011;3792;47.740;7.606;2023-06-22T01:52:08;9.17;;;5.53;;
7501;SDS011;3792;47.740;7.606;2023-06-22T01:54:37;8.93;;;5.73;;
7501;SDS011;3792;47.740;7.606;2023-06-22T01:57:06;9.77;;;5.67;;
7501;SDS011;3792;47.740;7.606;2023-06-22T01:59:34;10.37;;;5.73;;
7501;SDS011;3792;47.740;7.606;2023-06-22T02:02:07;8.03;;;5.87;;
7501;SDS011;3792;47.740;7.606;2023-06-22T02:04:39;9.00;;;4.90;;
7501;SDS011;3792;47.740;7.606;2023-06-22T02:07:12;7.93;;;5.73;;
7501;SDS011;3792;47.740;7.606;2023-06-22T02:09:42;10.93;;;5.70;;
7501;SDS011;3792;47.740;7.606;2023-06-22T02:12:12;11.20;;;5.43;;
7501;SDS011;3792;47.740;7.606;2023-06-22T02:14:43;12.63;;;5.47;;
7501;SDS011;3792;47.740;7.606;2023-06-22T02:17:11;11.17;;;5.47;;
7501;SDS011;3792;47.740;7.606;2023-06-22T02:19:42;11.60;;;5.10;;
7501;SDS011;3792;47.740;7.606;2023-06-22T02:22:09;14.70;;;5.93;;
7501;SDS011;3792;47.740;7.606;2023-06-22T02:24:36;10.13;;;5.67;;
7501;SDS011;3792;47.740;7.606;2023-06-22T02:27:04;8.83;;;5.60;;
7501;SDS011;3792;47.740;7.606;2023-06-22T02:29:32;10.20;;;6.20;;
7501;SDS011;3792;47.740;7.606;2023-06-22T02:31:59;10.97;;;5.70;;
7501;SDS011;3792;47.740;7.606;2023-06-22T02:34:26;11.17;;;6.07;;
7501;SDS011;3792;47.740;7.606;2023-06-22T02:36:55;9.87;;;5.80;;
7501;SDS011;3792;47.740;7.606;2023-06-22T02:39:23;13.50;;;5.50;;
7501;SDS011;3792;47.740;7.606;2023-06-22T02:41:51;10.17;;;5.37;;
7501;SDS011;3792;47.740;7.606;2023-06-22T02:44:19;9.90;;;6.23;;
7501;SDS011;3792;47.740;7.606;2023-06-22T02:46:47;12.97;;;5.83;;
7501;SDS011;3792;47.740;7.606;2023-06-22T02:49:15;9.93;;;6.40;;
7501;SDS011;3792;47.740;7.606;2023-06-22T02:51:44;13.50;;;6.60;;
7501;SDS011;3792;47.740;7.606;2023-06-22T02:54:13;10.13;;;5.53;;
7501;SDS011;3792;47.740;7.606;2023-06-22T02:56:41;9.03;;;5.93;;
7501;SDS011;3792;47.740;7.606;2023-06-22T02:59:09;14.80;;;6.10;;
7501;SDS011;3792;47.740;7.606;2023-06-22T03:01:36;15.00;;;5.47;;
7501;SDS011;3792;47.740;7.606;2023-06-22T03:04:05;8.23;;;5.33;;
7501;SDS011;3792;47.740;7.606;2023-06-22T03:06:33;13.53;;;6.20;;
7501;SDS011;3792;47.740;7.606;2023-06-22T03:09:01;10.90;;;5.30;;
7501;SDS011;3792;47.740;7.606;2023-06-22T03:11:31;11.77;;;5.57;;
7501;SDS011;3792;47.740;7.606;2023-06-22T03:13:58;6.90;;;5.00;;
7501;SDS011;3792;47.740;7.606;2023-06-22T03:16:25;8.27;;;5.13;;
7501;SDS011;3792;47.740;7.606;2023-06-22T03:18:53;11.43;;;5.73;;
7501;SDS011;3792;47.740;7.606;2023-06-22T03:21:21;10.03;;;4.93;;
7501;SDS011;3792;47.740;7.606;2023-06-22T03:23:49;8.50;;;4.53;;
7501;SDS011;3792;47.740;7.606;2023-06-22T03:26:16;7.00;;;5.07;;
7501;SDS011;3792;47.740;7.606;2023-06-22T03:28:45;7.37;;;5.13;;
7501;SDS011;3792;47.740;7.606;2023-06-22T03:31:13;7.77;;;5.87;;
7501;SDS011;3792;47.740;7.606;2023-06-22T03:33:40;10.50;;;6.17;;
7501;SDS011;3792;47.740;7.606;2023-06-22T03:36:07;12.97;;;5.43;;
7501;SDS011;3792;47.740;7.606;2023-06-22T03:38:34;9.77;;;5.67;;
7501;SDS011;3792;47.740;7.606;2023-06-22T03:41:01;6.23;;;5.33;;
7501;SDS011;3792;47.740;7.606;2023-06-22T03:43:28;7.73;;;5.57;;
7501;SDS011;3792;47.740;7.606;2023-06-22T03:45:57;10.77;;;5.77;;
7501;SDS011;3792;47.740;7.606;2023-06-22T03:48:24;8.87;;;5.97;;
7501;SDS011;3792;47.740;7.606;2023-06-22T03:50:51;11.90;;;6.00;;
7501;SDS011;3792;47.740;7.606;2023-06-22T03:53:18;10.13;;;6.73;;
7501;SDS011;3792;47.740;7.606;2023-06-22T03:55:48;13.97;;;6.40;;
7501;SDS011;3792;47.740;7.606;2023-06-22T03:58:16;12.13;;;6.60;;
7501;SDS011;3792;47.740;7.606;2023-06-22T04:00:44;9.20;;;6.20;;
7501;SDS011;3792;47.740;7.606;2023-06-22T04:03:13;12.23;;;6.60;;
7501;SDS011;3792;47.740;7.606;2023-06-22T04:05:40;12.20;;;7.07;;
7501;SDS011;3792;47.740;7.606;2023-06-22T04:08:08;15.07;;;7.33;;
7501;SDS011;3792;47.740;7.606;2023-06-22T04:10:35;8.40;;;6.17;;
7501;SDS011;3792;47.740;7.606;2023-06-22T04:13:02;9.67;;;5.50;;
7501;SDS011;3792;47.740;7.606;2023-06-22T04:15:29;11.07;;;6.13;;
7501;SDS011;3792;47.740;7.606;2023-06-22T04:17:56;9.60;;;6.13;;
7501;SDS011;3792;47.740;7.606;2023-06-22T04:20:25;8.00;;;6.17;;
7501;SDS011;3792;47.740;7.606;2023-06-22T04:22:52;13.03;;;6.50;;
7501;SDS011;3792;47.740;7.606;2023-06-22T04:25:19;8.33;;;5.97;;
7501;SDS011;3792;47.740;7.606;2023-06-22T04:27:47;12.40;;;7.20;;
7501;SDS011;3792;47.740;7.606;2023-06-22T04:30:14;12.57;;;6.27;;
7501;SDS011;3792;47.740;7.606;2023-06-22T04:32:42;12.10;;;6.03;;
7501;SDS011;3792;47.740;7.606;2023-06-22T04:35:09;15.07;;;6.97;;
7501;SDS011;3792;47.740;7.606;2023-06-22T04:37:38;11.97;;;6.80;;
7501;SDS011;3792;47.740;7.606;2023-06-22T04:40:05;12.97;;;6.57;;
7501;SDS011;3792;47.740;7.606;2023-06-22T04:42:34;16.77;;;6.83;;
7501;SDS011;3792;47.740;7.606;2023-06-22T04:45:02;12.63;;;6.63;;
7501;SDS011;3792;47.740;7.606;2023-06-22T04:47:29;11.53;;;6.30;;
7501;SDS011;3792;47.740;7.606;2023-06-22T04:49:57;9.37;;;6.23;;
7501;SDS011;3792;47.740;7.606;2023-06-22T04:52:24;12.03;;;6.13;;
7501;SDS011;3792;47.740;7.606;2023-06-22T04:54:52;9.07;;;6.60;;
7501;SDS011;3792;47.740;7.606;2023-06-22T04:57:24;26.93;;;7.10;;
7501;SDS011;3792;47.740;7.606;2023-06-22T04:59:57;11.93;;;6.17;;
7501;SDS011;3792;47.740;7.606;2023-06-22T05:02:32;14.93;;;6.97;;
7501;SDS011;3792;47.740;7.606;2023-06-22T05:04:59;8.80;;;6.70;;
7501;SDS011;3792;47.740;7.606;2023-06-22T05:07:31;12.90;;;7.07;;
7501;SDS011;3792;47.740;7.606;2023-06-22T05:10:00;10.77;;;6.97;;
7501;SDS011;3792;47.740;7.606;2023-06-22T05:12:28;11.43;;;6.70;;
7501;SDS011;3792;47.740;7.606;2023-06-22T05:14:56;12.20;;;7.83;;
7501;SDS011;3792;47.740;7.606;2023-06-22T05:17:23;9.27;;;6.37;;
7501;SDS011;3792;47.740;7.606;2023-06-22T05:19:50;12.13;;;6.23;;
7501;SDS011;3792;47.740;7.606;2023-06-22T05:22:17;12.03;;;7.20;;
7501;SDS011;3792;47.740;7.606;2023-06-22T05:24:45;13.53;;;7.07;;
7501;SDS011;3792;47.740;7.606;2023-06-22T05:27:14;12.97;;;6.90;;
7501;SDS011;3792;47.740;7.606;2023-06-22T05:29:49;8.07;;;6.50;;
7501;SDS011;3792;47.740;7.606;2023-06-22T05:32:43;11.90;;;7.07;;
7501;SDS011;3792;47.740;7.606;2023-06-22T05:35:10;7.17;;;6.20;;
7501;SDS011;3792;47.740;7.606;2023-06-22T05:37:37;8.77;;;6.40;;
7501;SDS011;3792;47.740;7.606;2023-06-22T05:40:05;9.33;;;6.30;;
7501;SDS011;3792;47.740;7.606;2023-06-22T05:42:36;11.13;;;6.57;;
7501;SDS011;3792;47.740;7.606;2023-06-22T05:45:03;11.23;;;6.20;;
7501;SDS011;3792;47.740;7.606;2023-06-22T05:47:31;8.87;;;6.40;;
7501;SDS011;3792;47.740;7.606;2023-06-22T05:49:58;9.73;;;7.07;;
7501;SDS011;3792;47.740;7.606;2023-06-22T05:52:25;9.63;;;8.00;;
7501;SDS011;3792;47.740;7.606;2023-06-22T05:54:52;11.60;;;7.63;;
7501;SDS011;3792;47.740;7.606;2023-06-22T05:57:19;13.43;;;7.73;;
7501;SDS011;3792;47.740;7.606;2023-06-22T05:59:48;15.87;;;8.47;;
7501;SDS011;3792;47.740;7.606;2023-06-22T06:02:16;11.80;;;8.37;;
7501;SDS011;3792;47.740;7.606;2023-06-22T06:04:44;16.10;;;9.63;;
7501;SDS011;3792;47.740;7.606;2023-06-22T06:07:11;15.30;;;9.50;;
7501;SDS011;3792;47.740;7.606;2023-06-22T06:09:38;17.10;;;9.57;;
7501;SDS011;3792;47.740;7.606;2023-06-22T06:12:05;17.70;;;9.83;;
7501;SDS011;3792;47.740;7.606;2023-06-22T06:14:33;11.53;;;8.80;;
7501;SDS011;3792;47.740;7.606;2023-06-22T06:17:01;16.60;;;11.40;;
7501;SDS011;3792;47.740;7.606;2023-06-22T06:19:29;22.53;;;13.23;;
7501;SDS011;3792;47.740;7.606;2023-06-22T06:21:56;12.63;;;10.37;;
7501;SDS011;3792;47.740;7.606;2023-06-22T06:24:23;17.40;;;13.73;;
7501;SDS011;3792;47.740;7.606;2023-06-22T06:26:50;22.07;;;15.47;;
7501;SDS011;3792;47.740;7.606;2023-06-22T06:29:17;19.13;;;15.37;;
7501;SDS011;3792;47.740;7.606;2023-06-22T06:31:45;20.23;;;17.97;;
7501;SDS011;3792;47.740;7.606;2023-06-22T06:34:14;23.10;;;19.37;;
7501;SDS011;3792;47.740;7.606;2023-06-22T06:36:41;28.40;;;21.10;;
7501;SDS011;3792;47.740;7.606;2023-06-22T06:39:09;28.60;;;19.97;;
7501;SDS011;3792;47.740;7.606;2023-06-22T06:41:37;24.43;;;20.13;;
7501;SDS011;3792;47.740;7.606;2023-06-22T06:44:04;24.40;;;20.27;;
7501;SDS011;3792;47.740;7.606;2023-06-22T06:46:31;27.97;;;21.67;;
7501;SDS011;3792;47.740;7.606;2023-06-22T06:48:58;25.50;;;19.83;;
7501;SDS011;3792;47.740;7.606;2023-06-22T06:51:26;23.70;;;19.60;;
7501;SDS011;3792;47.740;7.606;2023-06-22T06:53:53;22.63;;;19.77;;
7501;SDS011;3792;47.740;7.606;2023-06-22T06:56:20;26.33;;;19.37;;
7501;SDS011;3792;47.740;7.606;2023-06-22T06:58:49;25.27;;;20.80;;
7501;SDS011;3792;47.740;7.606;2023-06-22T07:01:17;23.43;;;18.67;;
7501;SDS011;3792;47.740;7.606;2023-06-22T07:03:44;24.83;;;18.60;;
7501;SDS011;3792;47.740;7.606;2023-06-22T07:06:12;23.33;;;18.67;;
7501;SDS011;3792;47.740;7.606;2023-06-22T07:08:42;19.83;;;16.40;;
7501;SDS011;3792;47.740;7.606;2023-06-22T07:11:09;25.90;;;18.37;;
7501;SDS011;3792;47.740;7.606;2023-06-22T07:13:36;26.77;;;16.60;;
7501;SDS011;3792;47.740;7.606;2023-06-22T07:16:04;21.37;;;16.63;;
7501;SDS011;3792;47.740;7.606;2023-06-22T07:18:31;18.83;;;14.20;;
7501;SDS011;3792;47.740;7.606;2023-06-22T07:20:58;18.13;;;13.13;;
7501;SDS011;3792;47.740;7.606;2023-06-22T07:23:25;18.07;;;12.20;;
7501;SDS011;3792;47.740;7.606;2023-06-22T07:25:54;13.13;;;11.73;;
7501;SDS011;3792;47.740;7.606;2023-06-22T07:28:21;16.70;;;13.07;;
7501;SDS011;3792;47.740;7.606;2023-06-22T07:30:48;20.73;;;13.90;;
7501;SDS011;3792;47.740;7.606;2023-06-22T07:33:16;20.70;;;14.67;;
7501;SDS011;3792;47.740;7.606;2023-06-22T07:35:43;20.87;;;13.33;;
7501;SDS011;3792;47.740;7.606;2023-06-22T07:38:12;17.70;;;13.10;;
7501;SDS011;3792;47.740;7.606;2023-06-22T07:40:39;18.13;;;12.30;;
7501;SDS011;3792;47.740;7.606;2023-06-22T07:43:08;15.43;;;11.93;;
7501;SDS011;3792;47.740;7.606;2023-06-22T07:45:37;16.37;;;11.83;;
7501;SDS011;3792;47.740;7.606;2023-06-22T07:48:06;19.07;;;12.50;;
7501;SDS011;3792;47.740;7.606;2023-06-22T07:50:33;15.67;;;11.47;;
7501;SDS011;3792;47.740;7.606;2023-06-22T07:53:00;20.13;;;10.70;;
7501;SDS011;3792;47.740;7.606;2023-06-22T07:55:27;19.47;;;12.60;;
7501;SDS011;3792;47.740;7.606;2023-06-22T07:57:54;15.37;;;10.23;;
7501;SDS011;3792;47.740;7.606;2023-06-22T08:00:24;13.23;;;9.80;;
7501;SDS011;3792;47.740;7.606;2023-06-22T08:02:53;14.97;;;8.93;;
7501;SDS011;3792;47.740;7.606;2023-06-22T08:05:20;14.60;;;8.00;;
7501;SDS011;3792;47.740;7.606;2023-06-22T08:07:47;12.67;;;9.37;;
7501;SDS011;3792;47.740;7.606;2023-06-22T08:10:14;14.43;;;9.87;;
7501;SDS011;3792;47.740;7.606;2023-06-22T08:12:42;11.40;;;8.60;;
7501;SDS011;3792;47.740;7.606;2023-06-22T08:15:09;10.70;;;8.90;;
7501;SDS011;3792;47.740;7.606;2023-06-22T08:17:37;9.47;;;7.77;;
7501;SDS011;3792;47.740;7.606;2023-06-22T08:20:05;14.97;;;8.50;;
7501;SDS011;3792;47.740;7.606;2023-06-22T08:22:37;12.37;;;7.70;;
7501;SDS011;3792;47.740;7.606;2023-06-22T08:25:04;12.97;;;8.13;;
7501;SDS011;3792;47.740;7.606;2023-06-22T08:27:32;12.97;;;7.93;;
7501;SDS011;3792;47.740;7.606;2023-06-22T08:29:59;13.20;;;7.40;;
7501;SDS011;3792;47.740;7.606;2023-06-22T08:32:26;11.90;;;8.17;;
7501;SDS011;3792;47.740;7.606;2023-06-22T08:34:55;15.27;;;8.50;;
7501;SDS011;3792;47.740;7.606;2023-06-22T08:37:23;13.17;;;7.67;;
7501;SDS011;3792;47.740;7.606;2023-06-22T08:39:55;13.70;;;8.40;;
7501;SDS011;3792;47.740;7.606;2023-06-22T08:42:22;12.37;;;8.20;;
7501;SDS011;3792;47.740;7.606;2023-06-22T08:44:50;11.77;;;8.43;;
7501;SDS011;3792;47.740;7.606;2023-06-22T08:47:18;13.43;;;8.97;;
7501;SDS011;3792;47.740;7.606;2023-06-22T08:49:46;14.07;;;9.10;;
7501;SDS011;3792;47.740;7.606;2023-06-22T08:52:15;12.97;;;8.87;;
7501;SDS011;3792;47.740;7.606;2023-06-22T08:54:43;14.43;;;8.37;;
7501;SDS011;3792;47.740;7.606;2023-06-22T08:57:10;11.77;;;8.13;;
7501;SDS011;3792;47.740;7.606;2023-06-22T08:59:37;12.20;;;8.47;;
7501;SDS011;3792;47.740;7.606;2023-06-22T09:02:05;9.67;;;8.00;;
7501;SDS011;3792;47.740;7.606;2023-06-22T09:04:32;13.20;;;7.83;;
7501;SDS011;3792;47.740;7.606;2023-06-22T09:07:00;11.80;;;7.83;;
7501;SDS011;3792;47.740;7.606;2023-06-22T09:09:28;14.27;;;8.50;;
7501;SDS011;3792;47.740;7.606;2023-06-22T09:11:55;20.60;;;8.10;;
7501;SDS011;3792;47.740;7.606;2023-06-22T09:14:22;8.63;;;7.57;;
7501;SDS011;3792;47.740;7.606;2023-06-22T09:16:49;13.20;;;8.77;;
7501;SDS011;3792;47.740;7.606;2023-06-22T09:19:16;12.00;;;7.93;;
7501;SDS011;3792;47.740;7.606;2023-06-22T09:21:43;13.00;;;8.83;;
7501;SDS011;3792;47.740;7.606;2023-06-22T09:24:10;13.53;;;8.53;;
7501;SDS011;3792;47.740;7.606;2023-06-22T09:26:39;13.77;;;8.17;;
7501;SDS011;3792;47.740;7.606;2023-06-22T09:29:06;11.33;;;8.13;;
7501;SDS011;3792;47.740;7.606;2023-06-22T09:31:33;14.53;;;9.27;;
7501;SDS011;3792;47.740;7.606;2023-06-22T09:34:00;15.23;;;9.77;;
7501;SDS011;3792;47.740;7.606;2023-06-22T09:36:27;14.90;;;8.37;;
7501;SDS011;3792;47.740;7.606;2023-06-22T09:38:54;13.87;;;8.73;;
7501;SDS011;3792;47.740;7.606;2023-06-22T09:41:23;12.93;;;9.57;;
7501;SDS011;3792;47.740;7.606;2023-06-22T09:43:52;12.77;;;9.07;;
7501;SDS011;3792;47.740;7.606;2023-06-22T09:46:19;13.40;;;9.57;;
7501;SDS011;3792;47.740;7.606;2023-06-22T09:48:50;12.57;;;8.30;;
7501;SDS011;3792;47.740;7.606;2023-06-22T09:51:17;16.23;;;9.93;;
7501;SDS011;3792;47.740;7.606;2023-06-22T09:53:45;11.27;;;8.53;;
7501;SDS011;3792;47.740;7.606;2023-06-22T09:56:12;14.60;;;9.10;;
7501;SDS011;3792;47.740;7.606;2023-06-22T09:58:40;18.07;;;9.70;;
7501;SDS011;3792;47.740;7.606;2023-06-22T10:01:09;14.17;;;9.00;;
7501;SDS011;3792;47.740;7.606;2023-06-22T10:03:36;19.20;;;10.30;;
7501;SDS011;3792;47.740;7.606;2023-06-22T10:06:04;15.40;;;10.17;;
7501;SDS011;3792;47.740;7.606;2023-06-22T10:08:31;16.93;;;10.47;;
7501;SDS011;3792;47.740;7.606;2023-06-22T10:10:58;11.00;;;8.47;;
7501;SDS011;3792;47.740;7.606;2023-06-22T10:13:25;13.83;;;9.73;;
7501;SDS011;3792;47.740;7.606;2023-06-22T10:15:52;13.03;;;8.57;;
7501;SDS011;3792;47.740;7.606;2023-06-22T10:18:20;14.03;;;9.77;;
7501;SDS011;3792;47.740;7.606;2023-06-22T10:20:48;12.77;;;8.80;;
7501;SDS011;3792;47.740;7.606;2023-06-22T10:23:17;13.83;;;8.37;;
7501;SDS011;3792;47.740;7.606;2023-06-22T10:25:44;16.00;;;9.30;;
7501;SDS011;3792;47.740;7.606;2023-06-22T10:28:11;22.47;;;10.43;;
7501;SDS011;3792;47.740;7.606;2023-06-22T10:30:38;19.60;;;10.20;;
7501;SDS011;3792;47.740;7.606;2023-06-22T10:33:06;20.17;;;10.00;;
7501;SDS011;3792;47.740;7.606;2023-06-22T10:35:35;15.17;;;9.50;;
7501;SDS011;3792;47.740;7.606;2023-06-22T10:38:02;15.77;;;9.37;;
7501;SDS011;3792;47.740;7.606;2023-06-22T10:40:30;18.27;;;9.87;;
7501;SDS011;3792;47.740;7.606;2023-06-22T10:42:57;14.80;;;9.33;;
7501;SDS011;3792;47.740;7.606;2023-06-22T10:45:24;14.77;;;9.27;;
7501;SDS011;3792;47.740;7.606;2023-06-22T10:47:52;10.43;;;9.17;;
7501;SDS011;3792;47.740;7.606;2023-06-22T10:50:19;13.00;;;9.00;;
7501;SDS011;3792;47.740;7.606;2023-06-22T10:52:50;14.17;;;9.03;;
7501;SDS011;3792;47.740;7.606;2023-06-22T10:55:17;15.63;;;9.87;;
7501;SDS011;3792;47.740;7.606;2023-06-22T10:57:44;14.73;;;10.30;;
7501;SDS011;3792;47.740;7.606;2023-06-22T11:00:12;15.10;;;10.50;;
7501;SDS011;3792;47.740;7.606;2023-06-22T11:02:40;12.10;;;10.60;;
7501;SDS011;3792;47.740;7.606;2023-06-22T11:05:07;13.53;;;8.90;;
7501;SDS011;3792;47.740;7.606;2023-06-22T11:07:34;15.07;;;8.57;;
7501;SDS011;3792;47.740;7.606;2023-06-22T11:10:03;15.93;;;9.57;;
7501;SDS011;3792;47.740;7.606;2023-06-22T11:12:31;17.27;;;10.00;;
7501;SDS011;3792;47.740;7.606;2023-06-22T11:14:58;13.50;;;9.37;;
7501;SDS011;3792;47.740;7.606;2023-06-22T11:17:25;13.37;;;9.33;;
7501;SDS011;3792;47.740;7.606;2023-06-22T11:19:52;15.57;;;9.03;;
7501;SDS011;3792;47.740;7.606;2023-06-22T11:22:19;14.30;;;8.97;;
7501;SDS011;3792;47.740;7.606;2023-06-22T11:24:46;12.80;;;8.60;;
7501;SDS011;3792;47.740;7.606;2023-06-22T11:27:17;13.83;;;8.70;;
7501;SDS011;3792;47.740;7.606;2023-06-22T11:29:44;11.40;;;7.57;;
7501;SDS011;3792;47.740;7.606;2023-06-22T11:32:11;14.27;;;7.60;;
7501;SDS011;3792;47.740;7.606;2023-06-22T11:34:38;10.50;;;6.27;;
7501;SDS011;3792;47.740;7.606;2023-06-22T11:37:05;13.90;;;6.97;;
7501;SDS011;3792;47.740;7.606;2023-06-22T11:39:32;14.70;;;7.23;;
7501;SDS011;3792;47.740;7.606;2023-06-22T11:41:59;14.33;;;6.80;;
7501;SDS011;3792;47.740;7.606;2023-06-22T11:44:28;10.30;;;6.93;;
7501;SDS011;3792;47.740;7.606;2023-06-22T11:46:55;12.73;;;6.80;;
7501;SDS011;3792;47.740;7.606;2023-06-22T11:49:22;11.97;;;7.03;;
7501;SDS011;3792;47.740;7.606;2023-06-22T11:51:49;10.73;;;6.60;;
7501;SDS011;3792;47.740;7.606;2023-06-22T11:54:20;10.83;;;7.10;;
7501;SDS011;3792;47.740;7.606;2023-06-22T11:56:57;14.07;;;6.73;;
7501;SDS011;3792;47.740;7.606;2023-06-22T11:59:25;14.30;;;7.30;;
7501;SDS011;3792;47.740;7.606;2023-06-22T12:01:54;16.90;;;10.60;;
7501;SDS011;3792;47.740;7.606;2023-06-22T12:04:21;16.53;;;9.73;;
7501;SDS011;3792;47.740;7.606;2023-06-22T12:06:49;18.07;;;10.53;;
7501;SDS011;3792;47.740;7.606;2023-06-22T12:09:19;17.83;;;11.50;;
7501;SDS011;3792;47.740;7.606;2023-06-22T12:11:47;17.00;;;11.07;;
7501;SDS011;3792;47.740;7.606;2023-06-22T12:14:14;17.63;;;12.07;;
7501;SDS011;3792;47.740;7.606;2023-06-22T12:16:42;19.20;;;11.30;;
7501;SDS011;3792;47.740;7.606;2023-06-22T12:19:10;21.20;;;12.10;;
7501;SDS011;3792;47.740;7.606;2023-06-22T12:21:37;18.77;;;11.10;;
7501;SDS011;3792;47.740;7.606;2023-06-22T12:24:05;14.53;;;8.93;;
7501;SDS011;3792;47.740;7.606;2023-06-22T12:26:33;24.50;;;10.67;;
7501;SDS011;3792;47.740;7.606;2023-06-22T12:29:00;13.93;;;8.97;;
7501;SDS011;3792;47.740;7.606;2023-06-22T12:31:27;17.13;;;10.63;;
7501;SDS011;3792;47.740;7.606;2023-06-22T12:33:55;16.43;;;10.10;;
7501;SDS011;3792;47.740;7.606;2023-06-22T12:36:22;21.67;;;9.50;;
7501;SDS011;3792;47.740;7.606;2023-06-22T12:38:49;16.60;;;10.30;;
7501;SDS011;3792;47.740;7.606;2023-06-22T12:41:17;21.90;;;9.53;;
7501;SDS011;3792;47.740;7.606;2023-06-22T12:43:44;18.43;;;9.30;;
7501;SDS011;3792;47.740;7.606;2023-06-22T12:46:11;16.57;;;9.07;;
7501;SDS011;3792;47.740;7.606;2023-06-22T12:48:38;17.80;;;10.00;;
7501;SDS011;3792;47.740;7.606;2023-06-22T12:51:08;14.43;;;8.43;;
7501;SDS011;3792;47.740;7.606;2023-06-22T12:53:35;16.03;;;8.60;;
7501;SDS011;3792;47.740;7.606;2023-06-22T12:56:03;14.13;;;7.60;;
7501;SDS011;3792;47.740;7.606;2023-06-22T12:58:30;11.17;;;8.13;;
7501;SDS011;3792;47.740;7.606;2023-06-22T13:00:57;13.40;;;7.90;;
7501;SDS011;3792;47.740;7.606;2023-06-22T13:03:24;11.60;;;7.20;;
7501;SDS011;3792;47.740;7.606;2023-06-22T13:05:53;15.07;;;7.70;;
7501;SDS011;3792;47.740;7.606;2023-06-22T13:08:21;14.17;;;7.17;;
7501;SDS011;3792;47.740;7.606;2023-06-22T13:10:48;10.43;;;7.40;;
7501;SDS011;3792;47.740;7.606;2023-06-22T13:13:15;11.70;;;7.10;;
7501;SDS011;3792;47.740;7.606;2023-06-22T13:15:42;14.20;;;7.60;;
7501;SDS011;3792;47.740;7.606;2023-06-22T13:18:09;14.93;;;7.87;;
7501;SDS011;3792;47.740;7.606;2023-06-22T13:20:36;15.23;;;8.63;;
7501;SDS011;3792;47.740;7.606;2023-06-22T13:23:03;14.53;;;7.77;;
7501;SDS011;3792;47.740;7.606;2023-06-22T13:25:32;15.47;;;8.40;;
7501;SDS011;3792;47.740;7.606;2023-06-22T13:27:59;16.13;;;8.53;;
7501;SDS011;3792;47.740;7.606;2023-06-22T13:30:26;12.60;;;7.60;;
7501;SDS011;3792;47.740;7.606;2023-06-22T13:32:53;12.30;;;8.90;;
7501;SDS011;3792;47.740;7.606;2023-06-22T13:35:20;14.20;;;8.23;;
7501;SDS011;3792;47.740;7.606;2023-06-22T13:37:47;12.53;;;7.83;;
7501;SDS011;3792;47.740;7.606;2023-06-22T13:40:14;13.90;;;8.30;;
7501;SDS011;3792;47.740;7.606;2023-06-22T13:42:43;19.87;;;9.10;;
7501;SDS011;3792;47.740;7.606;2023-06-22T13:45:10;13.90;;;7.70;;
7501;SDS011;3792;47.740;7.606;2023-06-22T13:47:37;11.07;;;7.40;;
7501;SDS011;3792;47.740;7.606;2023-06-22T13:50:04;12.80;;;8.03;;
7501;SDS011;3792;47.740;7.606;2023-06-22T13:52:32;11.93;;;8.00;;
7501;SDS011;3792;47.740;7.606;2023-06-22T13:54:59;15.87;;;8.60;;
7501;SDS011;3792;47.740;7.606;2023-06-22T13:57:26;16.33;;;8.23;;
7501;SDS011;3792;47.740;7.606;2023-06-22T13:59:54;15.50;;;7.87;;
7501;SDS011;3792;47.740;7.606;2023-06-22T14:02:21;13.30;;;8.50;;
7501;SDS011;3792;47.740;7.606;2023-06-22T14:04:48;14.43;;;8.53;;
7501;SDS011;3792;47.740;7.606;2023-06-22T14:07:15;10.33;;;8.00;;
7501;SDS011;3792;47.740;7.606;2023-06-22T14:09:44;15.50;;;8.93;;
7501;SDS011;3792;47.740;7.606;2023-06-22T14:12:11;13.30;;;8.43;;
7501;SDS011;3792;47.740;7.606;2023-06-22T14:14:39;17.07;;;8.87;;
7501;SDS011;3792;47.740;7.606;2023-06-22T14:17:07;16.77;;;8.77;;
7501;SDS011;3792;47.740;7.606;2023-06-22T14:19:34;11.10;;;7.90;;
7501;SDS011;3792;47.740;7.606;2023-06-22T14:22:01;15.77;;;8.93;;
7501;SDS011;3792;47.740;7.606;2023-06-22T14:24:28;16.63;;;7.97;;
7501;SDS011;3792;47.740;7.606;2023-06-22T14:26:55;16.63;;;8.07;;
7501;SDS011;3792;47.740;7.606;2023-06-22T14:29:22;17.27;;;9.03;;
7501;SDS011;3792;47.740;7.606;2023-06-22T14:31:49;12.67;;;8.07;;
7501;SDS011;3792;47.740;7.606;2023-06-22T14:34:18;13.83;;;7.87;;
7501;SDS011;3792;47.740;7.606;2023-06-22T14:36:45;16.97;;;7.87;;
7501;SDS011;3792;47.740;7.606;2023-06-22T14:39:12;11.13;;;7.23;;
7501;SDS011;3792;47.740;7.606;2023-06-22T14:41:39;15.33;;;8.20;;
7501;SDS011;3792;47.740;7.606;2023-06-22T14:44:06;13.70;;;8.43;;
7501;SDS011;3792;47.740;7.606;2023-06-22T14:46:33;12.47;;;8.40;;
7501;SDS011;3792;47.740;7.606;2023-06-22T14:49:00;15.00;;;8.37;;
7501;SDS011;3792;47.740;7.606;2023-06-22T14:51:28;17.73;;;7.97;;
7501;SDS011;3792;47.740;7.606;2023-06-22T14:53:55;15.27;;;7.23;;
7501;SDS011;3792;47.740;7.606;2023-06-22T14:56:22;14.97;;;7.63;;
7501;SDS011;3792;47.740;7.606;2023-06-22T14:58:49;12.53;;;7.20;;
7501;SDS011;3792;47.740;7.606;2023-06-22T15:01:17;21.03;;;8.00;;
7501;SDS011;3792;47.740;7.606;2023-06-22T15:03:44;14.43;;;7.27;;